Time;durP1;ratioP1;P1;durP2;ratioP2;P2;SDS_P1;SDS_P2;PMS_P1;PMS_P2;Temp;Humidity;BMP_temperature;BMP_pressure;BME280_temperature;BME280_humidity;BME280_pressure;Samples;Min_cycle;Max_cycle;Signal;HPM_P1;HPM_P2
2021/12/09 00:01:26;;;;;;;0.30;0.30;;;2.00;99.90;;;;;;5115192;28;20505;-89
2021/12/09 00:03:55;;;;;;;1.07;0.70;;;2.00;99.90;;;;;;5115106;28;20428;-89
2021/12/09 00:06:27;;;;;;;0.30;0.30;;;1.90;99.90;;;;;;5115149;28;20439;-89
2021/12/09 00:08:54;;;;;;;1.40;1.40;;;1.90;99.90;;;;;;5114890;28;20459;-89
2021/12/09 00:11:21;;;;;;;0.30;0.30;;;1.90;99.90;;;;;;5115456;28;20458;-89
2021/12/09 00:13:50;;;;;;;0.30;0.30;;;1.90;99.90;;;;;;5115163;28;20446;-89
2021/12/09 00:16:16;;;;;;;0.30;0.30;;;1.90;99.90;;;;;;5114863;28;20439;-89
2021/12/09 00:18:43;;;;;;;0.30;0.20;;;1.90;99.90;;;;;;5114790;28;21013;-89
2021/12/09 00:21:10;;;;;;;0.30;0.30;;;1.90;99.90;;;;;;5114710;28;20473;-89
2021/12/09 00:23:37;;;;;;;0.30;0.30;;;2.00;99.90;;;;;;5114747;28;20450;-88
2021/12/09 00:26:04;;;;;;;0.30;0.20;;;2.00;99.90;;;;;;5114726;28;20455;-89
2021/12/09 00:28:31;;;;;;;0.30;0.30;;;1.90;99.90;;;;;;5115222;28;20423;-88
2021/12/09 00:30:59;;;;;;;0.47;0.47;;;2.00;99.90;;;;;;5114409;28;20470;-88
2021/12/09 00:33:26;;;;;;;0.30;0.30;;;2.00;99.90;;;;;;5114548;28;20443;-89
2021/12/09 00:35:56;;;;;;;0.30;0.30;;;2.00;99.90;;;;;;5114186;28;20435;-87
2021/12/09 00:38:34;;;;;;;0.53;0.53;;;1.90;99.90;;;;;;5114227;28;20841;-86
2021/12/09 00:41:02;;;;;;;0.30;0.30;;;1.90;99.90;;;;;;5113684;28;20573;-85
2021/12/09 00:43:28;;;;;;;0.30;0.30;;;1.90;99.90;;;;;;5113612;28;20942;-86
2021/12/09 00:45:57;;;;;;;0.40;0.40;;;1.90;99.90;;;;;;5113983;28;20443;-86
2021/12/09 00:48:25;;;;;;;0.30;0.30;;;1.80;99.90;;;;;;5113779;28;20514;-85
2021/12/09 00:50:53;;;;;;;0.43;0.43;;;1.90;99.90;;;;;;5113702;28;20459;-85
2021/12/09 00:53:20;;;;;;;0.43;0.43;;;1.90;99.90;;;;;;5113721;28;20458;-85
2021/12/09 00:55:47;;;;;;;0.30;0.30;;;1.90;99.90;;;;;;5113753;28;20446;-85
2021/12/09 00:58:14;;;;;;;0.30;0.30;;;1.90;99.90;;;;;;5113576;28;20478;-85
2021/12/09 01:00:41;;;;;;;0.30;0.30;;;2.00;99.90;;;;;;5116263;28;20447;-85
2021/12/09 01:03:08;;;;;;;0.30;0.30;;;2.00;99.90;;;;;;5117449;27;20439;-85
2021/12/09 01:05:36;;;;;;;0.30;0.30;;;2.10;99.90;;;;;;5117691;28;20455;-85
2021/12/09 01:08:04;;;;;;;0.30;0.30;;;2.10;99.90;;;;;;5117878;28;20938;-85
2021/12/09 01:10:31;;;;;;;0.30;0.30;;;2.10;99.90;;;;;;5117293;28;20552;-85
2021/12/09 01:12:58;;;;;;;0.30;0.30;;;2.10;99.90;;;;;;5117533;28;20446;-85
2021/12/09 01:15:25;;;;;;;0.30;0.20;;;2.10;99.90;;;;;;5117247;28;20446;-85
2021/12/09 01:17:52;;;;;;;0.30;0.30;;;2.20;99.90;;;;;;5117483;28;20470;-86
2021/12/09 01:20:25;;;;;;;0.30;0.30;;;2.10;99.90;;;;;;5117669;28;20473;-85
2021/12/09 01:22:54;;;;;;;0.60;0.60;;;2.10;99.90;;;;;;5117675;28;20439;-86
2021/12/09 01:25:21;;;;;;;0.30;0.30;;;2.10;99.90;;;;;;5117386;28;20806;-86
2021/12/09 01:27:50;;;;;;;0.30;0.30;;;2.10;99.90;;;;;;5117145;27;20446;-86
2021/12/09 01:30:19;;;;;;;0.30;0.30;;;2.10;99.90;;;;;;5123144;28;20524;-85
2021/12/09 01:32:52;;;;;;;0.33;0.33;;;2.10;99.90;;;;;;5117252;28;20458;-86
2021/12/09 01:35:21;;;;;;;0.30;0.20;;;2.10;99.90;;;;;;5116991;28;20430;-86
2021/12/09 01:37:52;;;;;;;0.30;0.30;;;2.10;99.90;;;;;;5117238;28;20483;-86
2021/12/09 01:40:21;;;;;;;0.40;0.40;;;2.20;99.90;;;;;;5117187;28;20486;-86
2021/12/09 01:42:48;;;;;;;0.30;0.30;;;2.20;99.90;;;;;;5117218;28;20451;-86
2021/12/09 01:45:15;;;;;;;0.30;0.30;;;2.20;99.90;;;;;;5117159;27;20439;-86
2021/12/09 01:47:41;;;;;;;0.30;0.20;;;2.10;99.90;;;;;;5117330;27;20439;-86
2021/12/09 01:50:09;;;;;;;0.30;0.30;;;2.10;99.90;;;;;;5117081;27;20466;-86
2021/12/09 01:52:36;;;;;;;0.30;0.30;;;2.10;99.90;;;;;;5117056;28;20453;-86
2021/12/09 01:55:04;;;;;;;0.30;0.30;;;2.10;99.90;;;;;;5117017;27;20447;-87
2021/12/09 01:57:32;;;;;;;0.30;0.30;;;2.10;99.90;;;;;;5116838;28;20475;-87
2021/12/09 01:59:59;;;;;;;4.00;2.60;;;2.10;99.90;;;;;;5116885;28;20448;-87
2021/12/09 02:02:26;;;;;;;0.30;0.30;;;2.20;99.90;;;;;;5116613;28;20800;-87
2021/12/09 02:04:53;;;;;;;0.30;0.30;;;2.10;99.90;;;;;;5116844;28;20447;-86
2021/12/09 02:07:19;;;;;;;0.30;0.30;;;2.20;99.90;;;;;;5116748;28;20453;-86
2021/12/09 02:09:47;;;;;;;0.60;0.60;;;2.20;99.90;;;;;;5116262;28;20490;-86
2021/12/09 02:12:14;;;;;;;0.30;0.30;;;2.20;99.90;;;;;;5115589;28;20457;-86
2021/12/09 02:14:43;;;;;;;0.30;0.30;;;2.30;99.90;;;;;;5116676;27;20427;-86
2021/12/09 02:17:11;;;;;;;0.30;0.30;;;2.30;99.90;;;;;;5116267;28;20518;-86
2021/12/09 02:19:42;;;;;;;0.30;0.30;;;2.30;99.90;;;;;;5116484;28;20847;-86
2021/12/09 02:22:11;;;;;;;0.40;0.40;;;2.30;99.90;;;;;;5116468;28;20780;-86
2021/12/09 02:24:39;;;;;;;0.30;0.27;;;2.30;99.90;;;;;;5116313;28;20443;-86
2021/12/09 02:27:06;;;;;;;0.30;0.20;;;2.30;99.90;;;;;;5116301;27;20454;-86
2021/12/09 02:29:33;;;;;;;0.30;0.20;;;2.30;99.90;;;;;;5116306;28;20496;-86
2021/12/09 02:32:01;;;;;;;0.40;0.30;;;2.30;99.90;;;;;;5116188;28;20466;-86
2021/12/09 02:34:28;;;;;;;0.50;0.43;;;2.30;99.90;;;;;;5116203;28;20517;-86
2021/12/09 02:36:55;;;;;;;0.30;0.30;;;2.40;99.90;;;;;;5115854;28;20450;-86
2021/12/09 02:39:23;;;;;;;0.30;0.30;;;2.30;99.90;;;;;;5115757;28;21010;-86
2021/12/09 02:41:50;;;;;;;0.30;0.30;;;2.30;99.90;;;;;;5115986;28;20822;-86
2021/12/09 02:44:19;;;;;;;0.40;0.40;;;2.30;99.90;;;;;;5116069;28;20451;-86
2021/12/09 02:46:48;;;;;;;0.30;0.30;;;2.30;99.90;;;;;;5115898;28;20462;-86
2021/12/09 02:49:19;;;;;;;2.80;2.60;;;2.30;99.90;;;;;;5115834;28;20798;-86
2021/12/09 02:51:47;;;;;;;0.30;0.30;;;2.40;99.90;;;;;;5115725;28;20466;-86
2021/12/09 02:54:17;;;;;;;0.40;0.40;;;2.40;99.90;;;;;;5115468;28;20446;-86
2021/12/09 02:56:48;;;;;;;0.30;0.30;;;2.40;99.90;;;;;;5115636;28;20447;-86
2021/12/09 02:59:15;;;;;;;0.30;0.30;;;2.40;99.90;;;;;;5115315;28;20470;-86
2021/12/09 03:01:53;;;;;;;0.30;0.30;;;2.40;99.90;;;;;;5115346;28;20819;-86
2021/12/09 03:04:20;;;;;;;0.30;0.30;;;2.50;99.90;;;;;;5115631;28;20478;-86
2021/12/09 03:06:48;;;;;;;0.30;0.30;;;2.50;99.90;;;;;;5115263;28;20980;-86
2021/12/09 03:09:17;;;;;;;0.30;0.30;;;2.50;99.90;;;;;;5115158;28;20478;-86
2021/12/09 03:11:53;;;;;;;0.30;0.30;;;2.50;99.90;;;;;;5115468;28;20470;-86
2021/12/09 03:14:20;;;;;;;0.30;0.20;;;2.50;99.90;;;;;;5115374;28;20439;-86
2021/12/09 03:16:47;;;;;;;1.17;1.17;;;2.50;99.90;;;;;;5115010;28;20968;-86
2021/12/09 03:19:14;;;;;;;0.40;0.40;;;2.50;99.90;;;;;;5115247;28;20474;-86
2021/12/09 03:21:43;;;;;;;0.30;0.20;;;2.50;99.90;;;;;;5115093;28;20466;-86
2021/12/09 03:24:12;;;;;;;0.30;0.20;;;2.50;99.90;;;;;;5114845;28;20450;-86
2021/12/09 03:26:42;;;;;;;0.50;0.50;;;2.50;99.90;;;;;;5115166;28;20447;-87
2021/12/09 03:29:12;;;;;;;0.30;0.30;;;2.50;99.90;;;;;;5115428;28;20428;-87
2021/12/09 03:31:41;;;;;;;0.30;0.30;;;2.50;99.90;;;;;;5114926;27;20505;-86
2021/12/09 03:34:08;;;;;;;1.13;1.03;;;2.50;99.90;;;;;;5114784;28;20949;-86
2021/12/09 03:36:35;;;;;;;0.30;0.30;;;2.50;99.90;;;;;;5115074;28;20458;-86
2021/12/09 03:39:05;;;;;;;0.30;0.30;;;2.50;99.90;;;;;;5115472;28;20471;-85
2021/12/09 03:41:32;;;;;;;0.30;0.30;;;2.50;99.90;;;;;;5117255;28;20812;-85
2021/12/09 03:43:58;;;;;;;0.30;0.30;;;2.60;99.90;;;;;;5115263;28;20443;-86
2021/12/09 03:46:27;;;;;;;0.30;0.20;;;2.60;99.90;;;;;;5114646;28;20455;-86
2021/12/09 03:48:54;;;;;;;0.30;0.30;;;2.60;99.90;;;;;;5114930;28;20461;-86
2021/12/09 03:51:21;;;;;;;0.30;0.20;;;2.60;99.90;;;;;;5114224;28;20989;-86
2021/12/09 03:53:47;;;;;;;0.30;0.30;;;2.60;99.90;;;;;;5114610;28;20443;-86
2021/12/09 03:56:14;;;;;;;0.30;0.30;;;2.60;99.90;;;;;;5114558;28;20447;-86
2021/12/09 03:58:41;;;;;;;0.30;0.20;;;2.60;99.90;;;;;;5114419;28;20839;-86
2021/12/09 04:01:08;;;;;;;0.50;0.40;;;2.60;99.90;;;;;;5114515;27;20463;-86
2021/12/09 04:03:36;;;;;;;0.30;0.30;;;2.60;99.90;;;;;;5114602;28;20443;-86
2021/12/09 04:06:03;;;;;;;0.30;0.30;;;2.60;99.90;;;;;;5114372;28;20483;-86
2021/12/09 04:08:30;;;;;;;0.30;0.20;;;2.60;99.90;;;;;;5114211;28;20462;-85
2021/12/09 04:10:57;;;;;;;0.30;0.30;;;2.50;99.90;;;;;;5114301;28;20467;-86
2021/12/09 04:13:24;;;;;;;0.30;0.30;;;2.40;99.90;;;;;;5114268;28;20450;-86
2021/12/09 04:15:50;;;;;;;0.30;0.20;;;2.30;99.90;;;;;;5114402;28;20447;-85
2021/12/09 04:18:17;;;;;;;0.30;0.30;;;2.30;99.90;;;;;;5114153;28;20467;-86
2021/12/09 04:20:45;;;;;;;0.30;0.30;;;2.20;99.90;;;;;;5114090;28;20463;-86
2021/12/09 04:23:12;;;;;;;0.30;0.20;;;2.20;99.90;;;;;;5114147;28;20453;-85
2021/12/09 04:25:39;;;;;;;0.30;0.30;;;2.20;99.90;;;;;;5114197;28;20926;-86
2021/12/09 04:28:06;;;;;;;0.30;0.20;;;2.20;99.90;;;;;;5114284;28;20447;-86
2021/12/09 04:30:33;;;;;;;0.30;0.20;;;2.20;99.90;;;;;;5113937;28;20467;-86
2021/12/09 04:33:01;;;;;;;0.30;0.30;;;2.20;99.90;;;;;;5114201;28;20435;-86
2021/12/09 04:35:27;;;;;;;0.30;0.30;;;2.20;99.90;;;;;;5113499;28;20801;-86
2021/12/09 04:37:55;;;;;;;0.30;0.20;;;2.30;99.90;;;;;;5114269;28;20443;-86
2021/12/09 04:40:22;;;;;;;0.30;0.30;;;2.30;99.90;;;;;;5113568;28;20826;-86
2021/12/09 04:42:49;;;;;;;0.30;0.30;;;2.30;99.90;;;;;;5113714;28;20430;-86
2021/12/09 04:45:16;;;;;;;0.30;0.20;;;2.40;99.90;;;;;;5113908;28;20817;-86
2021/12/09 04:47:43;;;;;;;0.30;0.20;;;2.40;99.90;;;;;;5113914;28;20442;-86
2021/12/09 04:50:12;;;;;;;0.30;0.30;;;2.40;99.90;;;;;;5113407;28;20823;-85
2021/12/09 04:52:40;;;;;;;0.30;0.30;;;2.40;99.90;;;;;;5113861;28;20461;-86
2021/12/09 04:55:10;;;;;;;0.30;0.20;;;2.50;99.90;;;;;;5113497;28;20942;-86
2021/12/09 04:57:38;;;;;;;0.30;0.20;;;2.50;99.90;;;;;;5114278;28;20443;-86
2021/12/09 05:00:09;;;;;;;0.30;0.20;;;2.50;99.90;;;;;;5113581;28;20482;-86
2021/12/09 05:02:50;;;;;;;0.30;0.20;;;2.40;99.90;;;;;;5113867;28;20474;-85
2021/12/09 05:05:17;;;;;;;0.30;0.30;;;2.40;99.90;;;;;;5114084;28;20432;-86
2021/12/09 05:07:44;;;;;;;0.30;0.20;;;2.40;99.90;;;;;;5113700;28;20454;-86
2021/12/09 05:10:12;;;;;;;0.40;0.40;;;2.30;99.90;;;;;;5113420;28;20493;-85
2021/12/09 05:12:39;;;;;;;0.60;0.60;;;2.30;99.90;;;;;;5113666;28;20529;-85
2021/12/09 05:15:07;;;;;;;0.30;0.20;;;2.30;99.90;;;;;;5113616;28;20818;-86
2021/12/09 05:17:33;;;;;;;0.40;0.40;;;2.30;99.90;;;;;;5113360;28;20938;-85
2021/12/09 05:20:00;;;;;;;0.30;0.30;;;2.30;99.90;;;;;;5113165;28;20997;-86
2021/12/09 05:22:27;;;;;;;0.37;0.30;;;2.30;99.90;;;;;;5113263;28;20937;-86
2021/12/09 05:24:54;;;;;;;0.40;0.40;;;2.30;99.90;;;;;;5113713;28;20443;-86
2021/12/09 05:27:23;;;;;;;0.30;0.30;;;2.30;99.90;;;;;;5113595;28;20446;-85
2021/12/09 05:30:03;;;;;;;0.30;0.30;;;2.30;99.90;;;;;;5113450;28;20534;-86
2021/12/09 05:32:29;;;;;;;0.30;0.20;;;2.30;99.90;;;;;;5113310;28;20503;-85
2021/12/09 05:34:57;;;;;;;0.30;0.20;;;2.40;99.90;;;;;;5113687;28;20439;-86
2021/12/09 05:37:26;;;;;;;0.30;0.20;;;2.40;99.90;;;;;;5113816;28;20431;-86
2021/12/09 05:39:55;;;;;;;0.30;0.30;;;2.40;99.90;;;;;;5113204;28;20858;-86
2021/12/09 05:42:25;;;;;;;0.30;0.30;;;2.40;99.90;;;;;;5113346;28;20445;-86
2021/12/09 05:44:52;;;;;;;0.30;0.20;;;2.40;99.90;;;;;;5113462;28;20513;-86
2021/12/09 05:47:19;;;;;;;0.30;0.20;;;2.40;99.90;;;;;;5115386;28;20438;-86
2021/12/09 05:49:47;;;;;;;0.30;0.30;;;2.40;99.90;;;;;;5116963;28;20446;-86
2021/12/09 05:52:15;;;;;;;0.30;0.30;;;2.40;99.90;;;;;;5116646;27;20443;-86
2021/12/09 05:54:42;;;;;;;0.30;0.27;;;2.40;99.90;;;;;;5116861;28;20445;-86
2021/12/09 05:57:09;;;;;;;0.40;0.40;;;2.40;99.90;;;;;;5116783;27;20451;-86
2021/12/09 05:59:40;;;;;;;0.40;0.30;;;2.40;99.90;;;;;;5117340;27;20838;-81
2021/12/09 06:02:08;;;;;;;0.30;0.20;;;2.50;99.90;;;;;;5116850;28;20432;-86
2021/12/09 06:04:35;;;;;;;0.30;0.20;;;2.40;99.90;;;;;;5116672;28;20449;-86
2021/12/09 06:07:02;;;;;;;0.30;0.20;;;2.50;99.90;;;;;;5116679;27;20450;-85
2021/12/09 06:09:29;;;;;;;0.30;0.30;;;2.50;99.90;;;;;;5116087;28;21048;-86
2021/12/09 06:11:55;;;;;;;0.30;0.30;;;2.40;99.90;;;;;;5116124;28;20459;-85
2021/12/09 06:14:22;;;;;;;1.07;1.07;;;2.40;99.90;;;;;;5116510;28;20458;-85
2021/12/09 06:16:50;;;;;;;0.30;0.20;;;2.40;99.90;;;;;;5116786;28;20439;-86
2021/12/09 06:19:17;;;;;;;0.30;0.30;;;2.40;99.90;;;;;;5116349;28;20497;-85
2021/12/09 06:21:44;;;;;;;0.30;0.20;;;2.40;99.90;;;;;;5115997;28;20969;-85
2021/12/09 06:24:11;;;;;;;0.30;0.30;;;2.40;99.90;;;;;;5115966;27;20930;-85
2021/12/09 06:26:37;;;;;;;0.30;0.20;;;2.40;99.90;;;;;;5116355;28;20447;-85
2021/12/09 06:29:07;;;;;;;0.30;0.30;;;2.30;99.90;;;;;;5116136;28;20447;-85
2021/12/09 06:31:34;;;;;;;0.30;0.30;;;2.30;99.90;;;;;;5116082;28;20474;-85
2021/12/09 06:34:02;;;;;;;0.30;0.30;;;2.40;99.90;;;;;;5116105;28;20451;-85
2021/12/09 06:36:29;;;;;;;0.30;0.20;;;2.40;99.90;;;;;;5115720;28;20942;-84
2021/12/09 06:38:56;;;;;;;0.30;0.20;;;2.40;99.90;;;;;;5115758;28;20467;-85
2021/12/09 06:41:23;;;;;;;0.30;0.30;;;2.40;99.90;;;;;;5115877;28;20477;-85
2021/12/09 06:43:49;;;;;;;1.23;0.60;;;2.40;99.90;;;;;;5115919;28;20419;-85
2021/12/09 06:46:16;;;;;;;0.30;0.30;;;2.40;99.90;;;;;;5115940;28;20800;-85
2021/12/09 06:48:43;;;;;;;0.30;0.27;;;2.40;99.90;;;;;;5116639;28;20431;-85
2021/12/09 06:51:12;;;;;;;0.30;0.30;;;2.40;99.90;;;;;;5115734;28;20467;-85
2021/12/09 06:53:39;;;;;;;0.30;0.20;;;2.40;99.90;;;;;;5115739;28;20548;-85
2021/12/09 06:56:07;;;;;;;0.30;0.30;;;2.40;99.90;;;;;;5115696;28;20411;-85
2021/12/09 06:58:34;;;;;;;0.30;0.30;;;2.40;99.90;;;;;;5115936;28;20765;-85
2021/12/09 07:01:01;;;;;;;0.30;0.30;;;2.50;99.90;;;;;;5115446;28;20486;-85
2021/12/09 07:03:28;;;;;;;0.30;0.20;;;2.50;99.90;;;;;;5115675;28;20480;-85
2021/12/09 07:05:56;;;;;;;0.30;0.20;;;2.50;99.90;;;;;;5115610;28;20789;-85
2021/12/09 07:08:24;;;;;;;0.30;0.20;;;2.50;99.90;;;;;;5115281;28;20438;-84
2021/12/09 07:10:51;;;;;;;0.30;0.20;;;2.50;99.90;;;;;;5115600;28;20465;-85
2021/12/09 07:13:18;;;;;;;0.30;0.30;;;2.50;99.90;;;;;;5114950;28;20431;-85
2021/12/09 07:15:45;;;;;;;0.57;0.57;;;2.50;99.90;;;;;;5115135;28;20961;-84
2021/12/09 07:18:12;;;;;;;0.30;0.20;;;2.40;99.90;;;;;;5115235;28;20451;-84
2021/12/09 07:20:38;;;;;;;0.30;0.30;;;2.40;99.90;;;;;;5114969;28;20494;-84
2021/12/09 07:23:05;;;;;;;0.30;0.30;;;2.40;99.90;;;;;;5115141;27;20458;-84
2021/12/09 07:25:33;;;;;;;0.37;0.37;;;2.40;99.90;;;;;;5114762;28;20806;-84
2021/12/09 07:28:00;;;;;;;0.30;0.30;;;2.40;99.90;;;;;;5114685;28;20794;-85
2021/12/09 07:30:28;;;;;;;0.30;0.30;;;2.40;99.90;;;;;;5114876;28;20459;-84
2021/12/09 07:32:55;;;;;;;0.30;0.30;;;2.40;99.90;;;;;;5114851;28;20439;-84
2021/12/09 07:35:23;;;;;;;0.30;0.30;;;2.40;99.90;;;;;;5115126;28;20446;-84
2021/12/09 07:37:49;;;;;;;0.30;0.30;;;2.40;99.90;;;;;;5114493;28;20930;-84
2021/12/09 07:40:18;;;;;;;0.30;0.30;;;2.40;99.90;;;;;;5114616;28;20490;-84
2021/12/09 07:42:47;;;;;;;0.40;0.40;;;2.50;99.90;;;;;;5114649;28;20446;-84
2021/12/09 07:45:15;;;;;;;0.77;0.77;;;2.50;99.90;;;;;;5114631;28;20451;-84
2021/12/09 07:47:43;;;;;;;0.30;0.30;;;2.50;99.90;;;;;;5114614;28;20449;-84
2021/12/09 07:50:14;;;;;;;0.30;0.30;;;2.50;99.90;;;;;;5114524;28;20516;-84
2021/12/09 07:52:42;;;;;;;0.30;0.30;;;2.50;99.90;;;;;;5114642;28;20443;-84
2021/12/09 07:55:09;;;;;;;0.30;0.20;;;2.50;99.90;;;;;;5114452;28;20447;-84
2021/12/09 07:57:36;;;;;;;0.30;0.20;;;2.60;99.90;;;;;;5114395;28;20451;-85
2021/12/09 08:00:06;;;;;;;0.30;0.30;;;2.50;99.90;;;;;;5114256;28;20850;-84
2021/12/09 08:02:33;;;;;;;0.30;0.20;;;2.60;99.90;;;;;;5114629;28;20446;-84
2021/12/09 08:05:00;;;;;;;0.30;0.20;;;2.50;99.90;;;;;;5114284;28;20447;-84
2021/12/09 08:07:27;;;;;;;0.30;0.20;;;2.60;99.90;;;;;;5114265;28;20474;-84
2021/12/09 08:09:53;;;;;;;0.30;0.20;;;2.60;99.90;;;;;;5112991;28;20973;-84
2021/12/09 08:12:20;;;;;;;0.40;0.40;;;2.60;99.90;;;;;;5113819;28;20973;-84
2021/12/09 08:14:47;;;;;;;0.97;0.37;;;2.70;99.90;;;;;;5113860;28;20934;-84
2021/12/09 08:17:44;;;;;;;0.30;0.20;;;2.70;99.90;;;;;;5113862;28;20454;-84
2021/12/09 08:20:12;;;;;;;0.40;0.40;;;2.80;99.90;;;;;;5113755;28;20559;-84
2021/12/09 08:22:40;;;;;;;0.67;0.63;;;2.90;99.90;;;;;;5114131;28;20446;-84
2021/12/09 08:25:08;;;;;;;0.30;0.20;;;2.90;99.90;;;;;;5113752;28;20447;-84
2021/12/09 08:27:35;;;;;;;0.30;0.30;;;2.90;99.90;;;;;;5113968;28;20492;-84
2021/12/09 08:30:05;;;;;;;0.40;0.40;;;3.00;99.90;;;;;;5113896;27;20458;-84
2021/12/09 08:32:33;;;;;;;0.40;0.40;;;3.00;99.90;;;;;;5113962;28;20458;-85
2021/12/09 08:35:00;;;;;;;0.80;0.40;;;3.00;99.90;;;;;;5114029;28;20804;-84
2021/12/09 08:37:27;;;;;;;0.30;0.20;;;3.00;99.90;;;;;;5113922;28;20451;-84
2021/12/09 08:39:54;;;;;;;0.30;0.20;;;3.00;99.90;;;;;;5113469;28;21005;-84
2021/12/09 08:42:21;;;;;;;1.50;0.70;;;3.00;99.90;;;;;;5113459;28;20954;-84
2021/12/09 08:44:47;;;;;;;0.60;0.60;;;3.00;99.90;;;;;;5113796;28;20442;-84
2021/12/09 08:47:14;;;;;;;0.30;0.30;;;3.00;99.90;;;;;;5113777;28;20785;-84
2021/12/09 08:49:44;;;;;;;0.40;0.30;;;3.10;99.90;;;;;;5113697;28;20439;-84
2021/12/09 08:52:10;;;;;;;0.30;0.30;;;3.10;99.90;;;;;;5113440;28;20494;-84
2021/12/09 08:54:37;;;;;;;0.30;0.30;;;3.20;99.90;;;;;;5113521;28;20443;-84
2021/12/09 08:57:05;;;;;;;0.30;0.20;;;3.30;99.90;;;;;;5113794;28;20454;-84
2021/12/09 08:59:32;;;;;;;0.50;0.50;;;3.40;99.90;;;;;;5113305;28;20451;-84
2021/12/09 09:01:59;;;;;;;0.30;0.30;;;3.50;99.90;;;;;;5113607;28;20463;-84
2021/12/09 09:04:26;;;;;;;0.30;0.30;;;3.50;99.90;;;;;;5113751;28;20930;-81
2021/12/09 09:06:56;;;;;;;0.73;0.73;;;3.50;99.90;;;;;;5113603;28;20449;-82
2021/12/09 09:09:26;;;;;;;0.30;0.30;;;3.60;99.90;;;;;;5113379;28;20582;-81
2021/12/09 09:11:52;;;;;;;0.30;0.20;;;3.70;99.90;;;;;;5113594;28;20477;-83
2021/12/09 09:14:19;;;;;;;0.30;0.20;;;3.70;99.90;;;;;;5113836;28;20427;-82
2021/12/09 09:16:46;;;;;;;0.40;0.30;;;3.80;99.90;;;;;;5113581;28;20435;-81
2021/12/09 09:19:14;;;;;;;0.30;0.30;;;3.90;99.90;;;;;;5113523;28;20805;-81
2021/12/09 09:21:42;;;;;;;0.30;0.30;;;4.00;99.90;;;;;;5116147;28;20479;-81
2021/12/09 09:24:11;;;;;;;0.30;0.20;;;4.00;99.90;;;;;;5117146;28;20480;-81
2021/12/09 09:26:38;;;;;;;0.30;0.30;;;4.20;99.90;;;;;;5117369;28;20434;-81
2021/12/09 09:29:05;;;;;;;0.30;0.30;;;4.30;99.90;;;;;;5117040;28;20930;-81
2021/12/09 09:31:33;;;;;;;0.30;0.30;;;4.30;99.90;;;;;;5117195;28;20470;-81
2021/12/09 09:34:02;;;;;;;0.30;0.30;;;4.40;99.90;;;;;;5117233;28;20427;-81
2021/12/09 09:36:29;;;;;;;1.17;0.40;;;4.50;99.90;;;;;;5116866;28;20434;-82
2021/12/09 09:39:06;;;;;;;0.30;0.30;;;4.40;99.90;;;;;;5117162;28;20431;-82
2021/12/09 09:41:34;;;;;;;0.57;0.30;;;4.30;99.90;;;;;;5116880;28;20574;-81
2021/12/09 09:44:12;;;;;;;1.33;1.23;;;4.40;99.90;;;;;;5117051;28;20454;-81
2021/12/09 09:46:39;;;;;;;0.30;0.20;;;4.40;99.90;;;;;;5117075;28;20428;-81
2021/12/09 09:49:06;;;;;;;0.30;0.20;;;4.50;99.90;;;;;;5116649;28;20924;-81
2021/12/09 09:51:35;;;;;;;0.30;0.30;;;4.50;99.90;;;;;;5116477;28;21003;-81
2021/12/09 09:54:03;;;;;;;0.30;0.20;;;4.50;99.90;;;;;;5117095;28;20434;-81
2021/12/09 09:56:32;;;;;;;0.30;0.30;;;4.60;99.90;;;;;;5116800;28;20437;-81
2021/12/09 09:59:07;;;;;;;0.30;0.30;;;4.60;99.90;;;;;;5116766;28;20442;-82
2021/12/09 10:01:36;;;;;;;0.30;0.30;;;4.60;99.90;;;;;;5116538;28;20493;-82
2021/12/09 10:04:13;;;;;;;0.40;0.40;;;4.50;99.90;;;;;;5116906;28;20894;-81
2021/12/09 10:06:42;;;;;;;0.30;0.20;;;4.50;99.90;;;;;;5116624;28;20427;-82
2021/12/09 10:09:09;;;;;;;0.30;0.30;;;4.50;99.90;;;;;;5116077;28;20920;-81
2021/12/09 10:11:36;;;;;;;0.30;0.30;;;4.50;99.90;;;;;;5116387;28;20466;-81
2021/12/09 10:14:13;;;;;;;0.30;0.30;;;4.50;99.90;;;;;;5116473;28;20432;-82
2021/12/09 10:16:42;;;;;;;0.30;0.30;;;4.40;99.90;;;;;;5116110;28;20927;-82
2021/12/09 10:19:17;;;;;;;0.30;0.30;;;4.50;99.90;;;;;;5116499;28;20458;-82
2021/12/09 10:21:45;;;;;;;0.30;0.30;;;4.50;99.90;;;;;;5116008;28;20479;-82
2021/12/09 10:24:11;;;;;;;0.30;0.20;;;4.60;99.90;;;;;;5116798;28;20447;-82
2021/12/09 10:26:41;;;;;;;0.60;0.40;;;4.60;99.90;;;;;;5115856;28;20443;-82
2021/12/09 10:29:14;;;;;;;0.30;0.30;;;4.60;99.90;;;;;;5116033;28;20961;-82
2021/12/09 10:31:45;;;;;;;0.30;0.30;;;4.70;99.90;;;;;;5115705;28;20558;-82
2021/12/09 10:34:33;;;;;;;0.73;0.73;;;4.70;99.90;;;;;;5115791;28;20432;-81
2021/12/09 10:37:09;;;;;;;0.57;0.57;;;4.80;99.90;;;;;;5115981;28;20849;-81
2021/12/09 10:39:49;;;;;;;0.60;0.50;;;4.80;99.90;;;;;;5115957;28;20435;-81
2021/12/09 10:42:22;;;;;;;0.30;0.20;;;4.90;99.90;;;;;;5115902;28;20443;-81
2021/12/09 10:44:56;;;;;;;0.30;0.30;;;4.90;99.90;;;;;;5116033;28;20835;-81
2021/12/09 10:47:45;;;;;;;0.30;0.23;;;4.90;99.90;;;;;;5115826;27;20435;-81
2021/12/09 10:50:20;;;;;;;0.30;0.20;;;4.90;99.90;;;;;;5115703;28;20498;-82
2021/12/09 10:52:52;;;;;;;0.70;0.70;;;4.80;99.90;;;;;;5115632;28;20427;-82
2021/12/09 10:55:24;;;;;;;0.33;0.30;;;4.80;99.90;;;;;;5115750;28;20477;-83
2021/12/09 10:58:13;;;;;;;0.30;0.20;;;4.70;99.90;;;;;;5115610;28;20427;-80
2021/12/09 11:00:45;;;;;;;0.40;0.30;;;4.80;99.90;;;;;;5111665;27;20486;-78
2021/12/09 11:03:15;;;;;;;0.30;0.30;;;4.80;99.90;;;;;;5115762;28;20431;-81
2021/12/09 11:05:45;;;;;;;0.30;0.20;;;4.90;99.90;;;;;;5115109;27;20438;-81
2021/12/09 11:08:17;;;;;;;0.30;0.20;;;4.90;99.90;;;;;;5115408;28;20440;-81
2021/12/09 11:10:47;;;;;;;0.30;0.20;;;4.90;99.90;;;;;;5114837;28;20474;-81
2021/12/09 11:13:15;;;;;;;0.30;0.20;;;4.90;99.90;;;;;;5115291;28;20459;-81
2021/12/09 11:15:54;;;;;;;1.93;0.30;;;4.90;99.90;;;;;;5115478;28;20454;-81
2021/12/09 11:18:35;;;;;;;0.30;0.23;;;4.80;99.90;;;;;;5116151;28;20490;-81
2021/12/09 11:21:05;;;;;;;0.30;0.27;;;4.90;99.90;;;;;;5115256;28;20540;-80
2021/12/09 11:23:43;;;;;;;0.30;0.30;;;4.90;99.90;;;;;;5115530;28;20427;-80
2021/12/09 11:26:33;;;;;;;0.30;0.20;;;5.00;99.90;;;;;;5115464;28;20427;-80
2021/12/09 11:29:04;;;;;;;0.30;0.20;;;5.00;99.90;;;;;;5105693;28;20450;-80
2021/12/09 11:31:38;;;;;;;0.60;0.30;;;5.20;99.90;;;;;;5114944;28;20494;-80
2021/12/09 11:34:11;;;;;;;0.30;0.30;;;5.40;99.90;;;;;;5114815;28;20416;-81
2021/12/09 11:36:48;;;;;;;0.40;0.30;;;5.50;99.90;;;;;;5114845;28;20453;-81
2021/12/09 11:39:20;;;;;;;0.30;0.30;;;5.50;99.90;;;;;;5114808;28;20415;-85
2021/12/09 11:41:48;;;;;;;0.30;0.20;;;5.50;99.90;;;;;;5114660;28;20900;-85
2021/12/09 11:44:16;;;;;;;0.30;0.20;;;5.60;99.90;;;;;;5114690;28;20443;-84
2021/12/09 11:46:46;;;;;;;0.30;0.30;;;5.70;99.90;;;;;;5114643;28;20454;-84
2021/12/09 11:49:13;;;;;;;0.30;0.30;;;5.80;99.90;;;;;;5114491;28;20962;-84
2021/12/09 11:51:41;;;;;;;0.60;0.40;;;6.00;99.90;;;;;;5114519;28;20470;-84
2021/12/09 11:54:10;;;;;;;0.30;0.30;;;6.10;99.90;;;;;;5114607;28;20451;-85
2021/12/09 11:56:46;;;;;;;0.30;0.30;;;6.10;99.90;;;;;;5114459;28;20478;-85
2021/12/09 12:11:05;;;;;;;0.33;0.33;;;6.30;99.90;;;;;;5114308;28;20407;-84
2021/12/09 12:13:45;;;;;;;0.30;0.30;;;6.30;99.90;;;;;;5115221;28;20547;-86
2021/12/09 12:16:47;;;;;;;0.30;0.30;;;6.20;99.90;;;;;;5114122;28;20431;-86
2021/12/09 12:19:26;;;;;;;0.30;0.20;;;6.10;99.90;;;;;;5114005;27;20898;-86
2021/12/09 12:22:11;;;;;;;0.30;0.20;;;6.00;99.90;;;;;;5113693;28;20985;-85
2021/12/09 12:27:56;;;;;;;0.30;0.20;;;5.80;99.90;;;;;;5114262;28;20411;-86
2021/12/09 12:34:01;;;;;;;0.30;0.20;;;5.90;99.90;;;;;;5106525;28;20580;-85
2021/12/09 12:39:57;;;;;;;0.30;0.20;;;6.00;99.90;;;;;;5113338;28;20438;-85
2021/12/09 12:42:37;;;;;;;0.30;0.30;;;5.90;99.90;;;;;;5113552;28;20520;-86
2021/12/09 12:45:18;;;;;;;0.30;0.20;;;5.70;99.90;;;;;;5113934;28;20435;-85
2021/12/09 12:47:53;;;;;;;0.30;0.20;;;5.70;99.90;;;;;;5113590;28;20427;-85
2021/12/09 12:50:22;;;;;;;0.30;0.20;;;5.60;99.90;;;;;;5113815;28;20510;-85
2021/12/09 12:52:51;;;;;;;0.50;0.50;;;5.50;99.90;;;;;;5113828;28;20451;-85
2021/12/09 12:55:25;;;;;;;0.30;0.20;;;5.40;99.90;;;;;;5114341;28;20457;-86
2021/12/09 12:57:54;;;;;;;0.30;0.30;;;5.20;99.90;;;;;;5118476;28;20903;-85
2021/12/09 13:00:24;;;;;;;0.40;0.37;;;5.20;99.90;;;;;;5117449;28;20502;-84
2021/12/09 13:05:55;;;;;;;0.40;0.30;;;5.10;99.90;;;;;;5106589;28;20477;-84
2021/12/09 13:08:57;;;;;;;0.40;0.40;;;5.20;99.90;;;;;;5117796;28;20525;-84
2021/12/09 13:11:45;;;;;;;0.30;0.20;;;5.20;99.90;;;;;;5117645;28;20470;-85
2021/12/09 13:14:20;;;;;;;0.30;0.20;;;5.30;99.90;;;;;;5117672;28;20427;-84
2021/12/09 13:17:02;;;;;;;0.30;0.20;;;5.40;99.90;;;;;;5117584;28;20434;-85
2021/12/09 13:19:38;;;;;;;0.40;0.40;;;5.50;99.90;;;;;;5117542;27;20430;-84
2021/12/09 13:22:20;;;;;;;0.30;0.20;;;5.60;99.90;;;;;;5117081;27;20981;-83
2021/12/09 13:24:54;;;;;;;0.40;0.30;;;5.80;99.90;;;;;;5118119;28;20881;-84
2021/12/09 13:27:32;;;;;;;0.50;0.50;;;5.90;99.90;;;;;;5117658;28;20437;-84
2021/12/09 13:30:24;;;;;;;0.30;0.20;;;6.00;99.90;;;;;;5117445;28;20431;-84
2021/12/09 13:33:14;;;;;;;0.30;0.20;;;5.90;99.90;;;;;;5117359;28;20488;-84
2021/12/09 13:36:02;;;;;;;0.37;0.37;;;6.00;99.90;;;;;;5117285;28;20516;-84